Time;durP1;ratioP1;P1;durP2;ratioP2;P2;SDS_P1;SDS_P2;PMS_P1;PMS_P2;Temp;Humidity;BMP_temperature;BMP_pressure;BME280_temperature;BME280_humidity;BME280_pressure;Samples;Min_cycle;Max_cycle;Signal;HPM_P1;HPM_P2
2022/05/21 00:00:20;;;;;;;0.90;0.60;;;22.80;57.70;;;;;;4971270;28;20497;-16
2022/05/21 00:02:46;;;;;;;0.70;0.40;;;22.80;57.70;;;;;;4977171;28;20043;-16
2022/05/21 00:05:12;;;;;;;0.68;0.35;;;22.80;57.70;;;;;;4980380;28;20582;-16
2022/05/21 00:07:38;;;;;;;0.75;0.40;;;22.80;57.70;;;;;;4978326;28;20443;-16
2022/05/21 00:10:04;;;;;;;1.00;0.38;;;22.80;57.70;;;;;;4979059;28;20051;-16
2022/05/21 00:12:29;;;;;;;0.68;0.40;;;22.80;57.80;;;;;;4972563;28;20058;-16
2022/05/21 00:14:57;;;;;;;0.40;0.32;;;22.80;57.90;;;;;;4973456;28;20046;-16
2022/05/21 00:17:22;;;;;;;0.52;0.30;;;22.80;57.90;;;;;;4979846;28;20062;-18
2022/05/21 00:19:48;;;;;;;1.90;0.80;;;22.80;57.90;;;;;;4975342;28;20504;-16
2022/05/21 00:22:14;;;;;;;1.20;0.40;;;22.80;57.80;;;;;;4975826;28;20120;-16
2022/05/21 00:24:39;;;;;;;0.35;0.35;;;22.80;57.90;;;;;;4977160;28;20051;-16
2022/05/21 00:27:05;;;;;;;3.45;0.50;;;22.80;57.90;;;;;;4975927;28;20511;-16
2022/05/21 00:29:31;;;;;;;0.57;0.40;;;22.80;58.00;;;;;;4976724;28;20062;-17
2022/05/21 00:31:56;;;;;;;1.05;0.68;;;22.80;58.00;;;;;;4975683;28;20170;-15
2022/05/21 00:34:22;;;;;;;0.75;0.40;;;22.80;58.00;;;;;;4967056;28;20405;-15
2022/05/21 00:36:48;;;;;;;3.35;0.50;;;22.70;58.00;;;;;;4977646;28;20486;-15
2022/05/21 00:39:13;;;;;;;0.40;0.40;;;22.70;58.00;;;;;;4977143;28;20129;-15
2022/05/21 00:41:39;;;;;;;1.33;0.57;;;22.80;57.90;;;;;;4974669;28;20053;-16
2022/05/21 00:44:05;;;;;;;0.52;0.40;;;22.70;58.00;;;;;;4978860;28;20050;-15
2022/05/21 00:46:39;;;;;;;0.60;0.50;;;22.80;58.00;;;;;;4972549;28;20047;-16
2022/05/21 00:49:13;;;;;;;0.30;0.30;;;22.70;57.90;;;;;;4965584;28;20051;-19
2022/05/21 00:51:43;;;;;;;0.70;0.52;;;22.80;57.90;;;;;;4971184;28;20051;-16
2022/05/21 00:54:09;;;;;;;0.80;0.40;;;22.70;57.90;;;;;;4976839;28;20102;-15
2022/05/21 00:56:38;;;;;;;0.55;0.40;;;22.70;58.00;;;;;;4971860;28;20147;-16
2022/05/21 01:01:49;;;;;;;;;;;22.70;58.00;;;;;;4991425;28;20097;-16
2022/05/21 01:04:15;;;;;;;1.27;0.35;;;22.70;58.10;;;;;;4975477;28;19914;-16
2022/05/21 01:06:40;;;;;;;0.40;0.40;;;22.70;58.00;;;;;;4975101;28;20566;-15
2022/05/21 01:09:06;;;;;;;0.52;0.40;;;22.70;58.00;;;;;;4973772;28;20550;-15
2022/05/21 01:11:32;;;;;;;0.40;0.40;;;22.70;58.00;;;;;;4967217;28;20042;-16
2022/05/21 01:13:57;;;;;;;0.50;0.50;;;22.70;58.00;;;;;;4974145;28;20038;-17
2022/05/21 01:16:23;;;;;;;0.65;0.40;;;22.70;58.00;;;;;;4965669;28;20043;-15
2022/05/21 01:18:49;;;;;;;0.30;0.30;;;22.70;58.10;;;;;;4971809;28;20042;-15
2022/05/21 01:21:14;;;;;;;0.55;0.40;;;22.70;58.10;;;;;;4967281;28;20051;-15
2022/05/21 01:23:40;;;;;;;0.40;0.32;;;22.70;58.10;;;;;;4960080;28;20448;-15
2022/05/21 01:26:17;;;;;;;0.88;0.50;;;22.70;58.10;;;;;;4974157;28;20109;-16
2022/05/21 01:28:43;;;;;;;0.52;0.30;;;22.70;58.10;;;;;;4974867;28;20053;-16
2022/05/21 01:31:09;;;;;;;0.63;0.50;;;22.70;58.20;;;;;;4975727;28;20133;-15
2022/05/21 01:33:36;;;;;;;0.63;0.50;;;22.70;58.10;;;;;;4970789;28;20497;-15
2022/05/21 01:36:03;;;;;;;0.45;0.45;;;22.60;58.00;;;;;;4997061;28;20101;-15
2022/05/21 01:38:29;;;;;;;0.98;0.60;;;22.60;58.20;;;;;;4974731;28;20484;-16
2022/05/21 01:40:55;;;;;;;0.32;0.20;;;22.60;58.10;;;;;;4974481;28;20039;-15
2022/05/21 01:46:05;;;;;;;1.52;0.30;;;22.60;58.10;;;;;;4975189;28;22862;-15
2022/05/21 01:48:31;;;;;;;0.70;0.60;;;22.60;58.20;;;;;;4976815;28;20429;-15
2022/05/21 01:50:57;;;;;;;0.55;0.40;;;22.60;58.10;;;;;;4967494;28;20068;-15
2022/05/21 01:53:23;;;;;;;0.50;0.40;;;22.60;58.20;;;;;;4966457;28;20038;-16
2022/05/21 01:55:49;;;;;;;0.32;0.30;;;22.60;58.10;;;;;;4972418;28;20404;-16
2022/05/21 01:58:15;;;;;;;0.50;0.50;;;22.60;58.20;;;;;;4967180;28;20149;-16
2022/05/21 02:00:41;;;;;;;0.60;0.40;;;22.60;58.80;;;;;;4967669;28;20412;-16
2022/05/21 02:03:09;;;;;;;0.63;0.38;;;22.60;58.20;;;;;;4975003;28;20039;-15
2022/05/21 02:05:34;;;;;;;0.60;0.50;;;22.60;58.10;;;;;;4976721;28;20047;-15
2022/05/21 02:08:00;;;;;;;0.40;0.30;;;22.60;58.10;;;;;;4976799;28;20101;-15
2022/05/21 02:10:26;;;;;;;0.70;0.70;;;22.60;58.20;;;;;;4968238;28;20501;-15
2022/05/21 02:12:51;;;;;;;0.50;0.30;;;22.50;58.10;;;;;;4972844;28;20043;-15
2022/05/21 02:15:17;;;;;;;0.30;0.20;;;22.50;58.10;;;;;;4974663;28;20039;-16
2022/05/21 02:17:42;;;;;;;0.68;0.30;;;22.50;58.10;;;;;;4976753;28;20521;-15
2022/05/21 02:20:08;;;;;;;0.60;0.40;;;22.50;58.20;;;;;;4963809;28;20051;-16
2022/05/21 02:22:36;;;;;;;0.45;0.30;;;22.50;58.30;;;;;;4960871;28;20061;-16
2022/05/21 02:25:06;;;;;;;0.60;0.40;;;22.50;58.20;;;;;;4961542;28;20496;-16
2022/05/21 02:27:31;;;;;;;0.52;0.30;;;22.50;58.20;;;;;;4979218;28;20523;-16
2022/05/21 02:29:57;;;;;;;0.40;0.30;;;22.50;58.10;;;;;;4980532;28;20371;-15
2022/05/21 02:32:23;;;;;;;0.50;0.30;;;22.50;58.10;;;;;;4974160;28;20043;-15
2022/05/21 02:34:48;;;;;;;0.52;0.40;;;22.50;58.20;;;;;;4980889;28;20050;-16
2022/05/21 02:39:58;;;;;;;0.65;0.35;;;22.50;58.30;;;;;;4978863;28;20049;-15
2022/05/21 02:45:08;;;;;;;1.48;0.40;;;22.50;58.40;;;;;;4969344;28;20055;-17
2022/05/21 02:47:34;;;;;;;3.20;0.50;;;22.50;58.50;;;;;;4959486;28;20051;-15
2022/05/21 02:50:00;;;;;;;0.82;0.30;;;22.50;58.60;;;;;;4964319;28;20062;-16
2022/05/21 02:52:25;;;;;;;1.40;0.63;;;22.50;58.50;;;;;;4970358;28;20050;-16
2022/05/21 02:54:51;;;;;;;0.32;0.20;;;22.50;58.30;;;;;;4959148;28;20134;-16
2022/05/21 02:57:17;;;;;;;0.40;0.30;;;22.50;58.40;;;;;;4969104;28;20771;-16
2022/05/21 02:59:42;;;;;;;0.80;0.30;;;22.50;58.50;;;;;;4979100;28;20567;-15
2022/05/21 03:02:08;;;;;;;0.52;0.47;;;22.50;58.40;;;;;;4978527;28;20233;-15
2022/05/21 03:04:34;;;;;;;0.40;0.40;;;22.50;58.50;;;;;;4978144;28;20077;-16
2022/05/21 03:07:00;;;;;;;0.93;0.32;;;22.50;58.40;;;;;;4974120;28;20507;-15
2022/05/21 03:12:10;;;;;;;0.60;0.60;;;22.50;58.50;;;;;;4986892;28;20423;-17
2022/05/21 03:14:35;;;;;;;0.40;0.30;;;22.50;58.40;;;;;;4961017;28;20046;-15
2022/05/21 03:17:01;;;;;;;0.68;0.60;;;22.50;58.40;;;;;;4958748;28;20067;-15
2022/05/21 03:19:31;;;;;;;0.30;0.30;;;22.40;58.40;;;;;;4971134;28;20054;-16
2022/05/21 03:21:56;;;;;;;0.50;0.35;;;22.40;58.50;;;;;;4977962;28;20042;-15
2022/05/21 03:24:22;;;;;;;4.07;0.80;;;22.40;58.50;;;;;;4978865;28;20047;-15
2022/05/21 03:26:49;;;;;;;0.55;0.35;;;22.40;58.50;;;;;;4977368;28;20096;-15
2022/05/21 03:29:14;;;;;;;0.50;0.35;;;22.40;58.40;;;;;;4973421;28;20155;-16
2022/05/21 03:31:40;;;;;;;0.40;0.40;;;22.40;58.40;;;;;;4978498;28;20043;-16
2022/05/21 03:34:06;;;;;;;0.85;0.40;;;22.40;58.30;;;;;;4975363;28;20057;-15
2022/05/21 03:36:32;;;;;;;0.98;0.50;;;22.40;58.40;;;;;;4977928;28;20043;-16
2022/05/21 03:38:58;;;;;;;0.47;0.30;;;22.40;58.30;;;;;;4976295;28;20059;-15
2022/05/21 03:41:24;;;;;;;0.47;0.40;;;22.40;58.40;;;;;;4977602;28;20069;-15
2022/05/21 03:43:50;;;;;;;0.40;0.40;;;22.40;58.40;;;;;;4978384;28;20408;-15
2022/05/21 03:46:16;;;;;;;0.63;0.28;;;22.40;58.50;;;;;;4975265;28;20043;-16
2022/05/21 03:48:41;;;;;;;0.40;0.30;;;22.40;58.50;;;;;;4977368;28;20043;-15
2022/05/21 03:51:07;;;;;;;0.73;0.30;;;22.40;58.50;;;;;;4977695;28;20415;-16
2022/05/21 03:53:33;;;;;;;0.85;0.77;;;22.30;58.40;;;;;;4978121;28;20071;-15
2022/05/21 03:55:58;;;;;;;0.50;0.40;;;22.30;58.50;;;;;;4965340;28;20043;-15
2022/05/21 03:58:24;;;;;;;0.85;0.45;;;22.30;58.60;;;;;;4973683;28;20050;-17
2022/05/21 04:00:50;;;;;;;0.60;0.32;;;22.30;58.50;;;;;;4978047;28;20043;-16
2022/05/21 04:03:16;;;;;;;0.40;0.40;;;22.30;58.50;;;;;;4977165;28;20560;-16
2022/05/21 04:05:42;;;;;;;0.45;0.45;;;22.30;58.50;;;;;;4965996;28;20086;-16
2022/05/21 04:08:07;;;;;;;0.40;0.40;;;22.30;58.50;;;;;;4971592;28;20042;-15
2022/05/21 04:10:33;;;;;;;0.30;0.30;;;22.30;58.60;;;;;;4977785;28;20035;-15
2022/05/21 04:12:58;;;;;;;0.52;0.30;;;22.30;58.60;;;;;;4967445;28;21021;-16
2022/05/21 04:15:25;;;;;;;0.40;0.32;;;22.30;58.50;;;;;;4958383;28;20093;-15
2022/05/21 04:17:52;;;;;;;0.55;0.40;;;22.30;58.50;;;;;;4958339;28;20481;-15
2022/05/21 04:20:17;;;;;;;0.50;0.35;;;22.30;58.40;;;;;;4957697;28;20130;-15
2022/05/21 04:22:43;;;;;;;0.65;0.30;;;22.30;58.40;;;;;;4958483;28;20082;-15
2022/05/21 04:25:09;;;;;;;0.75;0.60;;;22.30;58.40;;;;;;4957658;28;20054;-15
2022/05/21 04:27:36;;;;;;;0.73;0.47;;;22.30;58.50;;;;;;4958228;28;20097;-14
2022/05/21 04:30:03;;;;;;;0.52;0.30;;;22.30;58.50;;;;;;4957572;28;20102;-15
2022/05/21 04:32:29;;;;;;;0.40;0.40;;;22.30;58.50;;;;;;4975491;28;20050;-16
2022/05/21 04:34:54;;;;;;;0.30;0.28;;;22.30;58.50;;;;;;4975501;28;20109;-17
2022/05/21 04:37:21;;;;;;;1.10;0.57;;;22.30;58.50;;;;;;4976065;28;20408;-16
2022/05/21 04:39:46;;;;;;;0.60;0.40;;;22.30;58.40;;;;;;4976653;28;20114;-16
2022/05/21 04:42:12;;;;;;;0.60;0.40;;;22.30;58.40;;;;;;4976535;28;20538;-15
2022/05/21 04:44:38;;;;;;;0.80;0.50;;;22.30;58.40;;;;;;4970702;28;20155;-15
2022/05/21 04:47:03;;;;;;;0.50;0.30;;;22.20;58.40;;;;;;4956672;28;20043;-15
2022/05/21 04:49:29;;;;;;;2.05;0.52;;;22.20;58.40;;;;;;4957436;28;20058;-16
2022/05/21 04:51:55;;;;;;;0.63;0.32;;;22.20;58.40;;;;;;4968869;28;20578;-16
2022/05/21 04:54:21;;;;;;;1.13;0.80;;;22.20;58.40;;;;;;4962742;28;20054;-15
2022/05/21 04:56:46;;;;;;;0.77;0.20;;;22.30;58.40;;;;;;4970387;28;20038;-17
2022/05/21 04:59:12;;;;;;;0.30;0.30;;;22.20;58.40;;;;;;4975568;28;20046;-18
2022/05/21 05:01:39;;;;;;;0.50;0.38;;;22.20;58.40;;;;;;4975597;28;20057;-17
2022/05/21 05:04:05;;;;;;;0.30;0.28;;;22.20;58.40;;;;;;4974954;28;20050;-18
2022/05/21 05:06:30;;;;;;;0.40;0.30;;;22.20;58.40;;;;;;4976425;28;20061;-17
2022/05/21 05:08:56;;;;;;;0.35;0.30;;;22.30;58.40;;;;;;4975312;28;20043;-18
2022/05/21 05:11:22;;;;;;;0.32;0.30;;;22.30;58.20;;;;;;4972017;28;20039;-19
2022/05/21 05:13:47;;;;;;;0.20;0.20;;;22.20;58.20;;;;;;4956723;28;20040;-16
2022/05/21 05:16:13;;;;;;;0.55;0.32;;;22.20;58.50;;;;;;4956941;28;20046;-17
2022/05/21 05:18:38;;;;;;;0.82;0.50;;;22.20;58.40;;;;;;4974955;28;20050;-17
2022/05/21 05:21:04;;;;;;;0.30;0.20;;;22.20;58.40;;;;;;4973775;28;20043;-16
2022/05/21 05:23:30;;;;;;;0.80;0.45;;;22.20;58.40;;;;;;4973761;28;20487;-16
2022/05/21 05:25:59;;;;;;;0.73;0.50;;;22.20;58.40;;;;;;4971718;28;20511;-16
2022/05/21 05:28:24;;;;;;;0.50;0.40;;;22.20;58.40;;;;;;4967559;28;20046;-16
2022/05/21 05:30:51;;;;;;;0.75;0.38;;;22.20;58.40;;;;;;4972127;28;20575;-16
2022/05/21 05:33:17;;;;;;;0.55;0.30;;;22.20;58.40;;;;;;4972812;28;20466;-16
2022/05/21 05:35:43;;;;;;;1.25;0.50;;;22.20;58.40;;;;;;4973981;28;20039;-18
2022/05/21 05:38:09;;;;;;;0.52;0.38;;;22.20;58.40;;;;;;4969339;28;20170;-16
2022/05/21 05:40:35;;;;;;;0.45;0.30;;;22.20;58.30;;;;;;4969313;28;20051;-16
2022/05/21 05:43:01;;;;;;;0.25;0.25;;;22.20;58.40;;;;;;4971183;28;20130;-17
2022/05/21 05:45:27;;;;;;;0.30;0.20;;;22.10;58.40;;;;;;4969092;28;20400;-16
2022/05/21 05:47:53;;;;;;;0.47;0.47;;;22.10;58.50;;;;;;4971850;28;20931;-16
2022/05/21 05:50:19;;;;;;;0.30;0.30;;;22.20;58.50;;;;;;4969468;28;20417;-16
2022/05/21 05:52:45;;;;;;;0.30;0.25;;;22.20;58.40;;;;;;4973315;28;20066;-17
2022/05/21 05:55:10;;;;;;;0.70;0.50;;;22.20;58.40;;;;;;4968066;28;20049;-18
2022/05/21 05:57:36;;;;;;;0.30;0.28;;;22.10;58.50;;;;;;4973398;28;20633;-18
2022/05/21 06:00:03;;;;;;;0.65;0.40;;;22.10;58.50;;;;;;4990988;28;20038;-16
2022/05/21 06:05:18;;;;;;;0.15;0.15;;;22.10;58.50;;;;;;4630047;28;10000221;-16
2022/05/21 06:07:48;;;;;;;1.35;0.30;;;22.10;58.60;;;;;;4975073;28;20065;-18
2022/05/21 06:10:16;;;;;;;0.40;0.35;;;22.00;58.70;;;;;;4972515;28;21077;-18
2022/05/21 06:12:41;;;;;;;0.40;0.38;;;22.00;58.60;;;;;;4972115;28;20427;-16
2022/05/21 06:15:09;;;;;;;0.45;0.30;;;22.10;58.50;;;;;;4973730;28;20050;-17
2022/05/21 06:17:35;;;;;;;0.95;0.60;;;22.10;58.30;;;;;;4973708;28;20066;-16
2022/05/21 06:20:01;;;;;;;1.30;0.40;;;22.10;58.00;;;;;;4972621;28;20138;-17
2022/05/21 06:22:26;;;;;;;1.15;0.50;;;22.00;58.00;;;;;;4990034;28;20097;-16
2022/05/21 06:24:52;;;;;;;2.95;1.10;;;22.10;57.50;;;;;;4977852;28;20046;-16
2022/05/21 06:27:17;;;;;;;1.50;0.90;;;21.90;56.90;;;;;;4970690;28;20097;-17
2022/05/21 06:29:43;;;;;;;3.70;1.48;;;21.60;56.90;;;;;;4974372;28;20130;-16
2022/05/21 06:32:08;;;;;;;3.83;1.38;;;21.50;57.10;;;;;;4974636;28;20467;-15
2022/05/21 06:34:37;;;;;;;2.47;1.60;;;21.50;57.40;;;;;;4974729;28;20070;-15
2022/05/21 06:37:04;;;;;;;3.90;1.58;;;21.40;57.60;;;;;;4971972;28;20062;-16
2022/05/21 06:39:34;;;;;;;3.53;1.67;;;21.40;57.70;;;;;;4973595;28;20043;-16
2022/05/21 06:41:59;;;;;;;2.33;1.52;;;21.20;58.00;;;;;;4974087;28;20053;-16
2022/05/21 06:44:25;;;;;;;3.10;1.50;;;21.20;58.30;;;;;;4974004;28;20051;-15
2022/05/21 06:46:52;;;;;;;2.15;1.20;;;21.20;58.50;;;;;;4976244;28;20061;-16
2022/05/21 06:49:17;;;;;;;2.55;1.35;;;21.20;58.40;;;;;;4975247;28;20038;-16
2022/05/21 06:51:43;;;;;;;1.73;1.02;;;21.20;58.40;;;;;;4977114;28;20109;-16
2022/05/21 06:54:09;;;;;;;3.35;1.33;;;21.10;59.00;;;;;;4973544;28;20045;-16
2022/05/21 06:56:35;;;;;;;5.20;1.40;;;21.00;59.40;;;;;;4990242;28;20122;-16
2022/05/21 06:59:00;;;;;;;2.78;1.55;;;21.10;59.60;;;;;;4974701;28;20039;-15
2022/05/21 07:01:26;;;;;;;4.25;1.77;;;21.00;59.80;;;;;;4972929;28;20094;-17
2022/05/21 07:03:51;;;;;;;2.50;1.50;;;21.00;60.30;;;;;;4971941;28;20039;-15
2022/05/21 07:09:01;;;;;;;;;;;21.00;60.70;;;;;;4971230;28;20526;-15
2022/05/21 07:11:27;;;;;;;4.47;1.02;;;21.00;61.00;;;;;;4971878;28;19922;-15
2022/05/21 07:13:53;;;;;;;5.10;1.23;;;21.10;60.80;;;;;;4972528;28;20042;-15
2022/05/21 07:16:18;;;;;;;3.70;1.48;;;21.20;60.80;;;;;;4970575;28;20030;-15
2022/05/21 07:18:44;;;;;;;3.50;1.30;;;21.20;60.80;;;;;;4970597;28;20172;-15
2022/05/21 07:21:15;;;;;;;1.58;0.98;;;21.00;61.20;;;;;;4971365;28;20039;-15
2022/05/21 07:23:41;;;;;;;2.83;1.00;;;21.10;61.40;;;;;;4995983;28;20393;-16
2022/05/21 07:26:07;;;;;;;3.50;1.98;;;21.10;61.10;;;;;;4971999;28;20069;-16
2022/05/21 07:28:33;;;;;;;2.55;1.33;;;21.00;61.40;;;;;;4969643;28;20062;-16
2022/05/21 07:30:58;;;;;;;3.25;1.42;;;20.90;61.50;;;;;;4972900;28;20034;-16
2022/05/21 07:33:24;;;;;;;5.88;1.30;;;20.90;61.80;;;;;;4970513;28;20106;-16
2022/05/21 07:35:50;;;;;;;3.78;1.33;;;20.90;62.00;;;;;;4970729;28;20081;-17
2022/05/21 07:38:15;;;;;;;4.22;1.25;;;20.80;62.10;;;;;;4967765;28;20043;-17
2022/05/21 07:40:42;;;;;;;2.75;1.33;;;20.80;62.30;;;;;;4969689;28;20078;-15
2022/05/21 07:43:18;;;;;;;3.15;1.50;;;20.80;62.60;;;;;;4970571;28;20047;-17
2022/05/21 07:45:44;;;;;;;4.75;1.30;;;20.80;62.80;;;;;;4971608;28;20671;-16
2022/05/21 07:48:12;;;;;;;3.53;1.30;;;20.80;62.70;;;;;;4971639;28;20101;-16
2022/05/21 07:50:40;;;;;;;3.35;1.35;;;20.80;62.50;;;;;;4973018;28;20042;-15
2022/05/21 07:53:13;;;;;;;2.58;1.20;;;20.80;62.60;;;;;;4970790;28;20047;-17
2022/05/21 07:55:41;;;;;;;3.17;1.13;;;20.70;62.80;;;;;;4970000;28;20058;-15
2022/05/21 07:58:06;;;;;;;3.45;1.60;;;20.80;62.80;;;;;;4969413;28;20046;-17
2022/05/21 08:00:32;;;;;;;3.17;1.10;;;20.80;62.80;;;;;;4973006;28;20051;-16
2022/05/21 08:02:58;;;;;;;6.93;1.38;;;20.80;62.80;;;;;;4972573;28;20086;-16
2022/05/21 08:05:23;;;;;;;2.60;1.20;;;20.90;63.00;;;;;;4972360;28;20566;-16
2022/05/21 08:07:51;;;;;;;3.83;1.10;;;21.00;62.60;;;;;;4972023;28;20043;-16
2022/05/21 08:10:17;;;;;;;2.45;1.05;;;21.10;62.00;;;;;;4970956;28;20047;-17
2022/05/21 08:12:43;;;;;;;2.13;1.17;;;21.30;61.70;;;;;;4972517;28;20050;-17
2022/05/21 08:15:09;;;;;;;3.17;1.30;;;21.30;61.30;;;;;;4974970;28;20050;-17
2022/05/21 08:17:35;;;;;;;3.55;1.02;;;21.40;61.30;;;;;;4972300;28;20058;-16
2022/05/21 08:20:00;;;;;;;3.45;1.15;;;21.40;61.00;;;;;;4974482;28;20508;-16
2022/05/21 08:27:55;;;;;;;;;;;21.50;60.90;;;;;;4973877;28;20041;-16
2022/05/21 08:30:21;;;;;;;1.90;1.00;;;21.50;60.60;;;;;;4972545;28;19917;-16
2022/05/21 08:32:46;;;;;;;3.08;1.50;;;21.60;60.90;;;;;;4975975;28;20057;-16
2022/05/21 08:35:12;;;;;;;1.77;0.82;;;21.50;60.80;;;;;;4972899;28;20110;-16
2022/05/21 08:37:37;;;;;;;1.75;0.80;;;21.50;60.80;;;;;;4973204;28;20523;-17
2022/05/21 08:40:03;;;;;;;1.42;1.15;;;21.50;60.90;;;;;;4972392;28;20049;-16
2022/05/21 08:42:33;;;;;;;1.77;1.10;;;21.50;60.90;;;;;;4974524;28;20598;-16
2022/05/21 08:45:17;;;;;;;3.75;1.20;;;21.50;60.80;;;;;;4976458;28;20042;-16
2022/05/21 08:47:43;;;;;;;3.03;0.93;;;21.50;60.90;;;;;;4975116;28;20133;-16
2022/05/21 08:50:16;;;;;;;2.08;1.30;;;21.50;60.80;;;;;;4971821;28;20066;-16
2022/05/21 08:52:49;;;;;;;4.40;1.00;;;21.50;60.70;;;;;;4970404;28;20050;-15
2022/05/21 08:55:18;;;;;;;2.63;1.00;;;21.60;60.60;;;;;;4979210;28;20051;-17
2022/05/21 08:57:48;;;;;;;1.92;1.02;;;21.60;60.60;;;;;;4968211;28;20407;-19
2022/05/21 09:00:16;;;;;;;1.80;0.95;;;21.60;60.50;;;;;;4955032;28;20043;-18
2022/05/21 09:02:42;;;;;;;1.80;0.90;;;21.60;60.50;;;;;;4970480;28;20047;-20
2022/05/21 09:05:11;;;;;;;2.78;1.30;;;21.60;60.50;;;;;;4973869;28;20537;-16
2022/05/21 09:08:08;;;;;;;1.73;0.88;;;21.60;60.50;;;;;;4973483;28;20047;-16
2022/05/21 09:11:04;;;;;;;2.70;1.10;;;21.70;60.50;;;;;;4973286;28;20050;-17
2022/05/21 09:13:58;;;;;;;1.95;1.10;;;21.70;60.10;;;;;;4974585;28;20087;-17
2022/05/21 09:19:08;;;;;;;;;;;21.80;60.00;;;;;;4973962;28;20045;-18
2022/05/21 09:21:36;;;;;;;1.45;0.70;;;21.90;59.90;;;;;;4975587;28;19914;-16
2022/05/21 09:24:03;;;;;;;2.05;0.98;;;21.90;59.80;;;;;;4974642;28;20051;-16
2022/05/21 09:26:43;;;;;;;2.15;1.17;;;21.90;59.80;;;;;;4974644;28;20419;-17
2022/05/21 09:29:31;;;;;;;1.90;0.98;;;21.90;60.00;;;;;;4975240;28;20058;-17
2022/05/21 09:31:57;;;;;;;2.38;0.95;;;21.90;60.10;;;;;;4974160;28;20536;-16
2022/05/21 09:34:32;;;;;;;1.98;0.70;;;21.90;60.00;;;;;;4974691;28;20476;-16
2022/05/21 09:36:59;;;;;;;3.75;0.90;;;22.00;60.10;;;;;;4975811;28;20043;-17
2022/05/21 09:39:38;;;;;;;1.73;0.73;;;22.00;60.10;;;;;;4974968;28;20085;-16
2022/05/21 09:45:22;;;;;;;1.35;0.90;;;22.00;60.10;;;;;;4975422;28;20065;-17
2022/05/21 09:47:48;;;;;;;2.20;1.05;;;22.00;59.90;;;;;;4975594;28;20195;-15
2022/05/21 09:50:13;;;;;;;1.45;0.90;;;22.00;59.90;;;;;;4972883;28;20097;-16
2022/05/21 09:52:40;;;;;;;2.05;1.00;;;22.00;59.90;;;;;;4974259;28;20045;-15
2022/05/21 09:55:28;;;;;;;1.92;0.93;;;22.10;59.90;;;;;;4975913;28;20106;-16
2022/05/21 09:57:54;;;;;;;1.02;0.60;;;22.10;59.90;;;;;;4974087;28;20050;-16
2022/05/21 10:00:33;;;;;;;1.17;0.80;;;22.10;59.90;;;;;;4958623;28;20416;-16
2022/05/21 10:03:00;;;;;;;1.52;0.80;;;22.10;59.80;;;;;;4971100;28;20046;-14
2022/05/21 10:05:40;;;;;;;1.45;1.00;;;22.10;59.80;;;;;;4974430;28;20101;-14
2022/05/21 10:11:33;;;;;;;1.52;0.65;;;22.20;59.70;;;;;;4971464;28;20054;-16
2022/05/21 10:14:14;;;;;;;1.95;1.00;;;22.20;59.80;;;;;;4973440;28;20071;-17
2022/05/21 10:16:52;;;;;;;2.17;0.85;;;22.20;59.60;;;;;;4972737;28;20152;-17
2022/05/21 10:19:33;;;;;;;1.75;0.88;;;22.20;59.70;;;;;;4973134;28;20043;-16
2022/05/21 10:22:18;;;;;;;1.65;0.80;;;22.30;59.80;;;;;;4974556;28;20042;-16
2022/05/21 10:24:55;;;;;;;;;;;22.30;59.80;;;;;;4975536;28;20042;-15
2022/05/21 10:27:42;;;;;;;1.50;0.93;;;22.30;59.70;;;;;;4974513;28;19941;-17
2022/05/21 10:30:23;;;;;;;1.63;1.00;;;22.40;59.70;;;;;;4973693;28;20038;-15
2022/05/21 10:32:57;;;;;;;2.33;0.80;;;22.40;59.80;;;;;;4954478;28;20039;-15
2022/05/21 10:35:41;;;;;;;1.08;0.90;;;22.40;59.80;;;;;;4972514;28;20042;-15
2022/05/21 10:38:35;;;;;;;1.02;0.85;;;22.40;59.90;;;;;;4974399;28;20043;-14
2022/05/21 10:41:23;;;;;;;1.98;0.90;;;22.40;60.10;;;;;;4989470;28;20137;-15
2022/05/21 10:44:01;;;;;;;2.75;1.05;;;22.40;60.80;;;;;;4970262;28;20130;-16
2022/05/21 10:46:37;;;;;;;1.45;0.77;;;22.40;60.20;;;;;;4975384;28;20034;-15
2022/05/21 10:49:06;;;;;;;0.90;0.63;;;22.40;60.20;;;;;;4975858;28;20522;-15
2022/05/21 10:51:37;;;;;;;0.90;0.68;;;22.40;60.30;;;;;;4972564;28;20035;-15
2022/05/21 10:54:14;;;;;;;3.05;0.77;;;22.40;60.10;;;;;;4630610;28;10000186;-16
2022/05/21 10:56:58;;;;;;;1.38;1.27;;;22.50;59.90;;;;;;4987629;28;20109;-14
2022/05/21 10:59:50;;;;;;;0.98;0.65;;;22.50;60.00;;;;;;4972673;28;20047;-15
2022/05/21 11:03:14;;;;;;;1.15;0.85;;;22.50;60.70;;;;;;4965216;28;20101;-16
2022/05/21 11:05:45;;;;;;;1.08;0.70;;;22.50;60.30;;;;;;4960566;28;20188;-15
2022/05/21 11:08:21;;;;;;;2.90;1.00;;;22.60;60.10;;;;;;4975147;28;20046;-16
2022/05/21 11:11:04;;;;;;;1.45;0.80;;;22.50;60.10;;;;;;4974389;28;20046;-15
2022/05/21 11:14:04;;;;;;;1.05;0.70;;;22.60;60.00;;;;;;4954464;28;20047;-15
2022/05/21 11:16:51;;;;;;;1.05;0.63;;;22.60;60.10;;;;;;4972411;28;20740;-15
2022/05/21 11:19:36;;;;;;;0.85;0.65;;;22.60;60.10;;;;;;4959662;28;20062;-16
2022/05/21 11:22:05;;;;;;;1.83;0.65;;;22.60;60.00;;;;;;5002669;28;20050;-15
2022/05/21 11:24:37;;;;;;;1.00;0.70;;;22.60;59.90;;;;;;4972390;28;20157;-15
2022/05/21 11:27:18;;;;;;;1.42;0.80;;;22.60;60.10;;;;;;4974900;28;20049;-15
2022/05/21 11:29:54;;;;;;;2.78;0.70;;;22.60;60.10;;;;;;4971367;28;20084;-15
2022/05/21 11:38:33;;;;;;;1.48;0.55;;;22.70;59.90;;;;;;4955822;28;20189;-16
2022/05/21 11:41:24;;;;;;;1.50;0.82;;;22.70;59.60;;;;;;4967495;28;20078;-16
2022/05/21 11:47:05;;;;;;;1.23;0.60;;;22.80;59.90;;;;;;4973246;28;20046;-16
2022/05/21 11:49:51;;;;;;;3.25;0.88;;;22.70;60.00;;;;;;4973583;28;20043;-15
2022/05/21 11:52:32;;;;;;;0.68;0.55;;;22.80;59.70;;;;;;4973280;28;20042;-16
2022/05/21 11:54:57;;;;;;;1.45;0.68;;;22.80;59.80;;;;;;4972527;28;20741;-16
2022/05/21 11:57:30;;;;;;;1.02;0.50;;;22.80;60.20;;;;;;4970472;28;20396;-16
2022/05/21 11:59:56;;;;;;;0.68;0.60;;;22.80;60.10;;;;;;4972347;28;20055;-16
2022/05/21 12:02:25;;;;;;;0.82;0.68;;;22.80;59.80;;;;;;4969702;28;20047;-15
2022/05/21 12:05:04;;;;;;;3.67;0.57;;;22.80;59.60;;;;;;4970443;28;20570;-15
2022/05/21 12:07:46;;;;;;;1.25;0.70;;;22.90;60.00;;;;;;4973541;28;20677;-15
2022/05/21 12:10:19;;;;;;;0.70;0.63;;;22.80;59.70;;;;;;4971994;28;20054;-15
2022/05/21 12:13:12;;;;;;;1.20;0.65;;;22.90;59.90;;;;;;4965325;28;20046;-15
2022/05/21 12:15:42;;;;;;;0.70;0.55;;;22.90;59.80;;;;;;4973185;28;20066;-14
2022/05/21 12:18:43;;;;;;;1.23;0.45;;;22.90;60.00;;;;;;4966373;28;20078;-15
2022/05/21 12:21:13;;;;;;;1.15;0.63;;;23.00;59.50;;;;;;4976931;28;20054;-15
2022/05/21 12:23:42;;;;;;;1.20;0.70;;;22.90;59.90;;;;;;4970769;28;20548;-15
2022/05/21 12:26:30;;;;;;;1.15;0.63;;;23.00;59.50;;;;;;4972175;28;20043;-15
2022/05/21 12:28:56;;;;;;;0.77;0.40;;;23.00;59.80;;;;;;4965577;28;20137;-15
2022/05/21 12:31:22;;;;;;;1.60;0.65;;;23.00;60.00;;;;;;4972921;28;20086;-15
2022/05/21 12:34:22;;;;;;;1.05;0.70;;;22.90;60.00;;;;;;4971365;28;20050;-15
2022/05/21 12:37:00;;;;;;;0.85;0.43;;;22.90;59.80;;;;;;4975083;28;20050;-15
2022/05/21 12:39:47;;;;;;;1.25;0.60;;;22.90;60.20;;;;;;4973493;28;20078;-15
2022/05/21 12:42:19;;;;;;;1.40;0.43;;;22.90;60.00;;;;;;4975056;28;20065;-15
2022/05/21 12:44:47;;;;;;;1.17;0.80;;;22.90;60.00;;;;;;4967953;28;20199;-15
2022/05/21 12:47:25;;;;;;;1.00;0.65;;;23.00;59.90;;;;;;4974858;28;20492;-15
2022/05/21 12:49:51;;;;;;;0.63;0.40;;;23.00;59.70;;;;;;4974057;28;20110;-15
2022/05/21 12:52:29;;;;;;;1.65;0.68;;;23.00;59.80;;;;;;4972170;28;20063;-16
2022/05/21 12:55:17;;;;;;;1.48;0.40;;;23.00;59.70;;;;;;4981235;28;20407;-15
2022/05/21 12:57:43;;;;;;;1.17;0.70;;;23.00;59.50;;;;;;4971248;28;20054;-16
2022/05/21 13:00:09;;;;;;;1.63;0.47;;;23.00;59.40;;;;;;4967281;28;20053;-16
2022/05/21 13:02:46;;;;;;;0.90;0.60;;;23.00;59.40;;;;;;4968479;28;20047;-16
2022/05/21 13:05:32;;;;;;;2.03;0.63;;;23.00;59.40;;;;;;4969829;28;20042;-15
2022/05/21 13:08:03;;;;;;;1.23;0.55;;;23.00;59.40;;;;;;4966435;28;20051;-15
2022/05/21 13:10:36;;;;;;;0.60;0.60;;;23.00;59.40;;;;;;4973118;28;20085;-15
2022/05/21 13:13:13;;;;;;;1.02;0.80;;;23.00;59.40;;;;;;4974259;28;20043;-15
2022/05/21 13:15:58;;;;;;;0.95;0.35;;;23.10;59.40;;;;;;4971543;28;20062;-15
2022/05/21 13:18:54;;;;;;;0.60;0.52;;;23.10;59.40;;;;;;4962694;28;20053;-15
2022/05/21 13:21:26;;;;;;;0.70;0.47;;;23.10;59.30;;;;;;4975903;28;20047;-15
2022/05/21 13:24:06;;;;;;;0.70;0.40;;;23.10;59.30;;;;;;4974454;28;20047;-15
2022/05/21 13:26:34;;;;;;;2.53;0.50;;;23.10;59.20;;;;;;4966634;28;20507;-16
2022/05/21 13:29:25;;;;;;;0.50;0.40;;;23.10;59.20;;;;;;4972373;28;20527;-15
2022/05/21 13:31:51;;;;;;;0.40;0.30;;;23.10;59.10;;;;;;4969951;28;20065;-15
2022/05/21 13:34:23;;;;;;;2.45;0.50;;;23.10;59.10;;;;;;4983231;28;20133;-15
2022/05/21 13:36:59;;;;;;;0.73;0.68;;;23.10;59.00;;;;;;4971357;28;20054;-15
2022/05/21 13:39:27;;;;;;;0.30;0.30;;;23.20;59.00;;;;;;4972886;28;20058;-15
2022/05/21 13:41:53;;;;;;;1.13;0.60;;;23.20;58.90;;;;;;4973647;28;20858;-15
2022/05/21 13:44:24;;;;;;;0.80;0.40;;;23.10;59.10;;;;;;4972354;28;20938;-15